Accueil
METAR-TAF:

METAR-TAF

Aéroports :

Aéroport de Rome-Urbe

Rome, Italie

latitude: 41-57N, longitude: 012-30E, altitude: 18 m

Observation

Le bulletin a été fait il y a 6 heures et 44 minutes, à 17:50 UTC
Vent 7 kt de ouest/sud-ouest, variant entre sud et ouest
Température 27°C
Humidité 51%
Pression 1015 hPa
Visibilité 10 km ou plus
pas de nuages en-dessous de 1500 mètres et pas de cumulonimbus.

METAR: LIRU 031750Z 24007KT 180V260 CAVOK 27/16 Q1015

Heure: 02:34 (00:34 UTC)

Prévision

Le bulletin a été fait il y a 10 heures et 34 minutes, à 14:00 UTC
Prévision valable du 03 à 15 UTC au 03 à 24 UTC
Vent 10 kt de ouest/sud-ouest
Visibilité 10 km ou plus
Nuages épars à une hauteur de 5000 ft
Evoluant progressivement
du 03 à 16 UTC au 03 à 18 UTC
Vent 5 kt de direction variable

TAF: LIRU 031400Z 0315/0324 24010KT 9999 SCT050 BECMG 0316/0318 VRB05KT

Observations et prévisions météorologiques de plus de 4000 aéroports (messages METAR et TAF).

Les stations disponibles sont représentées par des disques jaunes et rouges sur la carte.

Passer la souris dessus pour voir le nom de la station.

Cliquer dessus pour voir les observations et prévisions météorologiques.

Pour changer de carte: cliquez sur les boutons verts avec une croix noire pour zoomer, sur le bouton vert avec un tiret pour effectuer un zoom arrière, ou sur les flèches vertes pour les cartes adjacentes.


METAR-TAF: